<?xml version="1.0" encoding="UTF-8" standalone="no" ?>
<gpx xmlns="http://www.topografix.com/GPX/1/1" xmlns:xsi="http://www.w3.org/2001/XMLSchema-instance" xsi:schemaLocation="http://www.topografix.com/GPX/1/1 http://www.topografix.com/GPX/1/1/gpx.xsd" version="1.1" creator="VisuGPX - https://www.visugpx.com">
  <metadata>
    <name>Autour du Beaucet</name>
    <desc><![CDATA[Balade entre le Beaucet et Saint Gens]]></desc>
  </metadata>
  <trk>
    <name><![CDATA[--Beaucet (Le)-- OR-5844591:Lundi]]></name>
    <trkseg>
      <trkpt lat="43.98343" lon="5.11874">
        <ele>248</ele>
        <time>2016-03-19T17:25:28Z</time>
      </trkpt>
      <trkpt lat="43.98377" lon="5.11825">
        <ele>240</ele>
        <time>2016-03-19T17:27:28Z</time>
      </trkpt>
      <trkpt lat="43.98407" lon="5.1181">
        <ele>234</ele>
        <time>2016-03-19T17:29:28Z</time>
      </trkpt>
      <trkpt lat="43.98427" lon="5.11851">
        <ele>233</ele>
        <time>2016-03-19T17:31:28Z</time>
      </trkpt>
      <trkpt lat="43.98477" lon="5.11868">
        <ele>226</ele>
        <time>2016-03-19T17:33:28Z</time>
      </trkpt>
      <trkpt lat="43.98547" lon="5.1189">
        <ele>222</ele>
        <time>2016-03-19T17:35:28Z</time>
      </trkpt>
      <trkpt lat="43.98558" lon="5.11883">
        <ele>221</ele>
        <time>2016-03-19T17:37:28Z</time>
      </trkpt>
      <trkpt lat="43.98603" lon="5.11955">
        <ele>229</ele>
        <time>2016-03-19T17:39:28Z</time>
      </trkpt>
      <trkpt lat="43.98639" lon="5.11945">
        <ele>234</ele>
        <time>2016-03-19T17:41:28Z</time>
      </trkpt>
      <trkpt lat="43.98712" lon="5.11936">
        <ele>245</ele>
        <time>2016-03-19T17:43:28Z</time>
      </trkpt>
      <trkpt lat="43.98759" lon="5.12009">
        <ele>270</ele>
        <time>2016-03-19T17:45:28Z</time>
      </trkpt>
      <trkpt lat="43.98725" lon="5.12057">
        <ele>277</ele>
        <time>2016-03-19T17:47:28Z</time>
      </trkpt>
      <trkpt lat="43.98718" lon="5.12093">
        <ele>285</ele>
        <time>2016-03-19T17:49:28Z</time>
      </trkpt>
      <trkpt lat="43.98633" lon="5.12112">
        <ele>271</ele>
        <time>2016-03-19T17:51:28Z</time>
      </trkpt>
      <trkpt lat="43.98605" lon="5.12166">
        <ele>275</ele>
        <time>2016-03-19T17:53:28Z</time>
      </trkpt>
      <trkpt lat="43.98579" lon="5.12275">
        <ele>281</ele>
        <time>2016-03-19T17:55:28Z</time>
      </trkpt>
      <trkpt lat="43.98551" lon="5.12363">
        <ele>278</ele>
        <time>2016-03-19T17:57:28Z</time>
      </trkpt>
      <trkpt lat="43.98522" lon="5.12415">
        <ele>272</ele>
        <time>2016-03-19T17:59:28Z</time>
      </trkpt>
      <trkpt lat="43.98545" lon="5.12486">
        <ele>287</ele>
        <time>2016-03-19T18:01:28Z</time>
      </trkpt>
      <trkpt lat="43.98478" lon="5.12514">
        <ele>270</ele>
        <time>2016-03-19T18:03:28Z</time>
      </trkpt>
      <trkpt lat="43.9846" lon="5.12563">
        <ele>272</ele>
        <time>2016-03-19T18:05:28Z</time>
      </trkpt>
      <trkpt lat="43.98437" lon="5.12632">
        <ele>270</ele>
        <time>2016-03-19T18:07:28Z</time>
      </trkpt>
      <trkpt lat="43.98412" lon="5.12685">
        <ele>267</ele>
        <time>2016-03-19T18:09:28Z</time>
      </trkpt>
      <trkpt lat="43.98414" lon="5.12739">
        <ele>267</ele>
        <time>2016-03-19T18:11:28Z</time>
      </trkpt>
      <trkpt lat="43.98441" lon="5.12801">
        <ele>275</ele>
        <time>2016-03-19T18:13:28Z</time>
      </trkpt>
      <trkpt lat="43.98409" lon="5.12835">
        <ele>269</ele>
        <time>2016-03-19T18:15:28Z</time>
      </trkpt>
      <trkpt lat="43.98387" lon="5.12872">
        <ele>272</ele>
        <time>2016-03-19T18:17:28Z</time>
      </trkpt>
      <trkpt lat="43.98352" lon="5.12926">
        <ele>272</ele>
        <time>2016-03-19T18:19:28Z</time>
      </trkpt>
      <trkpt lat="43.98333" lon="5.12973">
        <ele>274</ele>
        <time>2016-03-19T18:21:28Z</time>
      </trkpt>
      <trkpt lat="43.98349" lon="5.12999">
        <ele>280</ele>
        <time>2016-03-19T18:23:28Z</time>
      </trkpt>
      <trkpt lat="43.98326" lon="5.13035">
        <ele>282</ele>
        <time>2016-03-19T18:25:28Z</time>
      </trkpt>
      <trkpt lat="43.98352" lon="5.13095">
        <ele>294</ele>
        <time>2016-03-19T18:27:28Z</time>
      </trkpt>
      <trkpt lat="43.98363" lon="5.13125">
        <ele>297</ele>
        <time>2016-03-19T18:29:28Z</time>
      </trkpt>
      <trkpt lat="43.98358" lon="5.13185">
        <ele>300</ele>
        <time>2016-03-19T18:31:28Z</time>
      </trkpt>
      <trkpt lat="43.98338" lon="5.13166">
        <ele>299</ele>
        <time>2016-03-19T18:33:28Z</time>
      </trkpt>
      <trkpt lat="43.98313" lon="5.13172">
        <ele>296</ele>
        <time>2016-03-19T18:35:28Z</time>
      </trkpt>
      <trkpt lat="43.98273" lon="5.13205">
        <ele>293</ele>
        <time>2016-03-19T18:37:28Z</time>
      </trkpt>
      <trkpt lat="43.98196" lon="5.13215">
        <ele>284</ele>
        <time>2016-03-19T18:39:28Z</time>
      </trkpt>
      <trkpt lat="43.9818" lon="5.1325">
        <ele>285</ele>
        <time>2016-03-19T18:41:28Z</time>
      </trkpt>
      <trkpt lat="43.98113" lon="5.13262">
        <ele>279</ele>
        <time>2016-03-19T18:43:28Z</time>
      </trkpt>
      <trkpt lat="43.98032" lon="5.13308">
        <ele>283</ele>
        <time>2016-03-19T18:45:28Z</time>
      </trkpt>
      <trkpt lat="43.9797" lon="5.13338">
        <ele>289</ele>
        <time>2016-03-19T18:47:28Z</time>
      </trkpt>
      <trkpt lat="43.97909" lon="5.13316">
        <ele>298</ele>
        <time>2016-03-19T18:49:28Z</time>
      </trkpt>
      <trkpt lat="43.97839" lon="5.13333">
        <ele>301</ele>
        <time>2016-03-19T18:51:28Z</time>
      </trkpt>
      <trkpt lat="43.97756" lon="5.13357">
        <ele>296</ele>
        <time>2016-03-19T18:53:28Z</time>
      </trkpt>
      <trkpt lat="43.97683" lon="5.13447">
        <ele>301</ele>
        <time>2016-03-19T18:55:28Z</time>
      </trkpt>
      <trkpt lat="43.97657" lon="5.13466">
        <ele>302</ele>
        <time>2016-03-19T18:57:28Z</time>
      </trkpt>
      <trkpt lat="43.97648" lon="5.1343">
        <ele>301</ele>
        <time>2016-03-19T18:59:28Z</time>
      </trkpt>
      <trkpt lat="43.97561" lon="5.13584">
        <ele>318</ele>
        <time>2016-03-19T19:01:28Z</time>
      </trkpt>
      <trkpt lat="43.9751" lon="5.13649">
        <ele>329</ele>
        <time>2016-03-19T19:03:28Z</time>
      </trkpt>
      <trkpt lat="43.97466" lon="5.13687">
        <ele>337</ele>
        <time>2016-03-19T19:05:28Z</time>
      </trkpt>
      <trkpt lat="43.97337" lon="5.13713">
        <ele>361</ele>
        <time>2016-03-19T19:07:28Z</time>
      </trkpt>
      <trkpt lat="43.97166" lon="5.13741">
        <ele>387</ele>
        <time>2016-03-19T19:09:28Z</time>
      </trkpt>
      <trkpt lat="43.97147" lon="5.13758">
        <ele>388</ele>
        <time>2016-03-19T19:11:28Z</time>
      </trkpt>
      <trkpt lat="43.97118" lon="5.13773">
        <ele>391</ele>
        <time>2016-03-19T19:13:28Z</time>
      </trkpt>
      <trkpt lat="43.97053" lon="5.1385">
        <ele>407</ele>
        <time>2016-03-19T19:15:28Z</time>
      </trkpt>
      <trkpt lat="43.96927" lon="5.13904">
        <ele>413</ele>
        <time>2016-03-19T19:17:28Z</time>
      </trkpt>
      <trkpt lat="43.96764" lon="5.13928">
        <ele>409</ele>
        <time>2016-03-19T19:19:28Z</time>
      </trkpt>
      <trkpt lat="43.96649" lon="5.13941">
        <ele>402</ele>
        <time>2016-03-19T19:21:28Z</time>
      </trkpt>
      <trkpt lat="43.96582" lon="5.13962">
        <ele>393</ele>
        <time>2016-03-19T19:23:28Z</time>
      </trkpt>
      <trkpt lat="43.9657" lon="5.14013">
        <ele>404</ele>
        <time>2016-03-19T19:25:28Z</time>
      </trkpt>
      <trkpt lat="43.96511" lon="5.1414">
        <ele>410</ele>
        <time>2016-03-19T19:27:28Z</time>
      </trkpt>
      <trkpt lat="43.96435" lon="5.14185">
        <ele>412</ele>
        <time>2016-03-19T19:29:28Z</time>
      </trkpt>
      <trkpt lat="43.96377" lon="5.14187">
        <ele>423</ele>
        <time>2016-03-19T19:31:28Z</time>
      </trkpt>
      <trkpt lat="43.96284" lon="5.14232">
        <ele>442</ele>
        <time>2016-03-19T19:33:28Z</time>
      </trkpt>
      <trkpt lat="43.96241" lon="5.14305">
        <ele>454</ele>
        <time>2016-03-19T19:35:28Z</time>
      </trkpt>
      <trkpt lat="43.96208" lon="5.14305">
        <ele>467</ele>
        <time>2016-03-19T19:37:28Z</time>
      </trkpt>
      <trkpt lat="43.96207" lon="5.14213">
        <ele>464</ele>
        <time>2016-03-19T19:39:28Z</time>
      </trkpt>
      <trkpt lat="43.96258" lon="5.14164">
        <ele>456</ele>
        <time>2016-03-19T19:41:28Z</time>
      </trkpt>
      <trkpt lat="43.96287" lon="5.14112">
        <ele>460</ele>
        <time>2016-03-19T19:43:28Z</time>
      </trkpt>
      <trkpt lat="43.96295" lon="5.14056">
        <ele>464</ele>
        <time>2016-03-19T19:45:28Z</time>
      </trkpt>
      <trkpt lat="43.96238" lon="5.1396">
        <ele>473</ele>
        <time>2016-03-19T19:47:28Z</time>
      </trkpt>
      <trkpt lat="43.96213" lon="5.13902">
        <ele>467</ele>
        <time>2016-03-19T19:49:28Z</time>
      </trkpt>
      <trkpt lat="43.96215" lon="5.1387">
        <ele>460</ele>
        <time>2016-03-19T19:51:28Z</time>
      </trkpt>
      <trkpt lat="43.96156" lon="5.13784">
        <ele>457</ele>
        <time>2016-03-19T19:53:28Z</time>
      </trkpt>
      <trkpt lat="43.9611" lon="5.13677">
        <ele>461</ele>
        <time>2016-03-19T19:55:28Z</time>
      </trkpt>
      <trkpt lat="43.96184" lon="5.13649">
        <ele>460</ele>
        <time>2016-03-19T19:57:28Z</time>
      </trkpt>
      <trkpt lat="43.96287" lon="5.13625">
        <ele>460</ele>
        <time>2016-03-19T19:59:28Z</time>
      </trkpt>
      <trkpt lat="43.96366" lon="5.13599">
        <ele>461</ele>
        <time>2016-03-19T20:01:28Z</time>
      </trkpt>
      <trkpt lat="43.96409" lon="5.1358">
        <ele>462</ele>
        <time>2016-03-19T20:03:28Z</time>
      </trkpt>
      <trkpt lat="43.96465" lon="5.13541">
        <ele>463</ele>
        <time>2016-03-19T20:05:28Z</time>
      </trkpt>
      <trkpt lat="43.96525" lon="5.13492">
        <ele>462</ele>
        <time>2016-03-19T20:07:28Z</time>
      </trkpt>
      <trkpt lat="43.96571" lon="5.13453">
        <ele>457</ele>
        <time>2016-03-19T20:09:28Z</time>
      </trkpt>
      <trkpt lat="43.96587" lon="5.13308">
        <ele>442</ele>
        <time>2016-03-19T20:11:28Z</time>
      </trkpt>
      <trkpt lat="43.96627" lon="5.13258">
        <ele>431</ele>
        <time>2016-03-19T20:13:28Z</time>
      </trkpt>
      <trkpt lat="43.96689" lon="5.13138">
        <ele>416</ele>
        <time>2016-03-19T20:15:28Z</time>
      </trkpt>
      <trkpt lat="43.96734" lon="5.13031">
        <ele>403</ele>
        <time>2016-03-19T20:17:28Z</time>
      </trkpt>
      <trkpt lat="43.96795" lon="5.12964">
        <ele>396</ele>
        <time>2016-03-19T20:19:28Z</time>
      </trkpt>
      <trkpt lat="43.96871" lon="5.12904">
        <ele>391</ele>
        <time>2016-03-19T20:21:28Z</time>
      </trkpt>
      <trkpt lat="43.96908" lon="5.12887">
        <ele>388</ele>
        <time>2016-03-19T20:23:28Z</time>
      </trkpt>
      <trkpt lat="43.96959" lon="5.12865">
        <ele>383</ele>
        <time>2016-03-19T20:25:28Z</time>
      </trkpt>
      <trkpt lat="43.96883" lon="5.12799">
        <ele>382</ele>
        <time>2016-03-19T20:27:28Z</time>
      </trkpt>
      <trkpt lat="43.96839" lon="5.1272">
        <ele>369</ele>
        <time>2016-03-19T20:29:28Z</time>
      </trkpt>
      <trkpt lat="43.96806" lon="5.12653">
        <ele>364</ele>
        <time>2016-03-19T20:31:28Z</time>
      </trkpt>
      <trkpt lat="43.96843" lon="5.12574">
        <ele>355</ele>
        <time>2016-03-19T20:33:28Z</time>
      </trkpt>
      <trkpt lat="43.96852" lon="5.12454">
        <ele>352</ele>
        <time>2016-03-19T20:35:28Z</time>
      </trkpt>
      <trkpt lat="43.96882" lon="5.12398">
        <ele>352</ele>
        <time>2016-03-19T20:37:28Z</time>
      </trkpt>
      <trkpt lat="43.96914" lon="5.12303">
        <ele>351</ele>
        <time>2016-03-19T20:39:28Z</time>
      </trkpt>
      <trkpt lat="43.96923" lon="5.12207">
        <ele>354</ele>
        <time>2016-03-19T20:41:28Z</time>
      </trkpt>
      <trkpt lat="43.96951" lon="5.12136">
        <ele>349</ele>
        <time>2016-03-19T20:43:28Z</time>
      </trkpt>
      <trkpt lat="43.97013" lon="5.12003">
        <ele>342</ele>
        <time>2016-03-19T20:45:28Z</time>
      </trkpt>
      <trkpt lat="43.97073" lon="5.119">
        <ele>318</ele>
        <time>2016-03-19T20:47:28Z</time>
      </trkpt>
      <trkpt lat="43.97067" lon="5.11829">
        <ele>318</ele>
        <time>2016-03-19T20:49:28Z</time>
      </trkpt>
      <trkpt lat="43.97126" lon="5.11829">
        <ele>312</ele>
        <time>2016-03-19T20:51:28Z</time>
      </trkpt>
      <trkpt lat="43.97151" lon="5.11775">
        <ele>311</ele>
        <time>2016-03-19T20:53:28Z</time>
      </trkpt>
      <trkpt lat="43.97249" lon="5.11724">
        <ele>305</ele>
        <time>2016-03-19T20:55:28Z</time>
      </trkpt>
      <trkpt lat="43.973" lon="5.11664">
        <ele>300</ele>
        <time>2016-03-19T20:57:28Z</time>
      </trkpt>
      <trkpt lat="43.9737" lon="5.11595">
        <ele>298</ele>
        <time>2016-03-19T20:59:28Z</time>
      </trkpt>
      <trkpt lat="43.97473" lon="5.11569">
        <ele>289</ele>
        <time>2016-03-19T21:01:28Z</time>
      </trkpt>
      <trkpt lat="43.97575" lon="5.11572">
        <ele>284</ele>
        <time>2016-03-19T21:03:28Z</time>
      </trkpt>
      <trkpt lat="43.97638" lon="5.11563">
        <ele>280</ele>
        <time>2016-03-19T21:05:28Z</time>
      </trkpt>
      <trkpt lat="43.97953" lon="5.11752">
        <ele>319</ele>
        <time>2016-03-19T21:07:28Z</time>
      </trkpt>
      <trkpt lat="43.97714" lon="5.11529">
        <ele>276</ele>
        <time>2016-03-19T21:09:28Z</time>
      </trkpt>
      <trkpt lat="43.97764" lon="5.11512">
        <ele>272</ele>
        <time>2016-03-19T21:11:28Z</time>
      </trkpt>
      <trkpt lat="43.9783" lon="5.11533">
        <ele>268</ele>
        <time>2016-03-19T21:13:28Z</time>
      </trkpt>
      <trkpt lat="43.9791" lon="5.1149">
        <ele>260</ele>
        <time>2016-03-19T21:15:28Z</time>
      </trkpt>
      <trkpt lat="43.97995" lon="5.1149">
        <ele>254</ele>
        <time>2016-03-19T21:17:28Z</time>
      </trkpt>
      <trkpt lat="43.98089" lon="5.11481">
        <ele>251</ele>
        <time>2016-03-19T21:19:28Z</time>
      </trkpt>
      <trkpt lat="43.98137" lon="5.11486">
        <ele>248</ele>
        <time>2016-03-19T21:21:28Z</time>
      </trkpt>
      <trkpt lat="43.9823" lon="5.11524">
        <ele>244</ele>
        <time>2016-03-19T21:23:28Z</time>
      </trkpt>
      <trkpt lat="43.98275" lon="5.11584">
        <ele>242</ele>
        <time>2016-03-19T21:25:28Z</time>
      </trkpt>
      <trkpt lat="43.98315" lon="5.11638">
        <ele>242</ele>
        <time>2016-03-19T21:27:28Z</time>
      </trkpt>
      <trkpt lat="43.98398" lon="5.11745">
        <ele>234</ele>
        <time>2016-03-19T21:29:28Z</time>
      </trkpt>
      <trkpt lat="43.98407" lon="5.11784">
        <ele>233</ele>
        <time>2016-03-19T21:31:28Z</time>
      </trkpt>
      <trkpt lat="43.98355" lon="5.11842">
        <ele>245</ele>
        <time>2016-03-19T21:33:28Z</time>
      </trkpt>
    </trkseg>
  </trk>
</gpx>